createdAt,value
2018-09-23T00:00:02.988Z,15.80
2018-09-23T00:04:06.125Z,17.00
2018-09-23T00:08:09.075Z,15.17
2018-09-23T00:12:11.949Z,15.50
2018-09-23T00:16:15.251Z,18.67
2018-09-23T00:20:18.287Z,18.43
2018-09-23T00:24:21.279Z,18.17
2018-09-23T00:28:24.212Z,17.80
2018-09-23T00:32:27.203Z,20.03
2018-09-23T00:36:30.295Z,20.57
2018-09-23T00:40:33.219Z,20.20
2018-09-23T00:44:36.299Z,19.23
2018-09-23T00:48:39.215Z,20.50
2018-09-23T00:52:42.078Z,18.50
2018-09-23T00:56:45.014Z,20.97
2018-09-23T01:00:47.878Z,19.20
2018-09-23T01:04:51.099Z,21.73
2018-09-23T01:08:53.970Z,21.63
2018-09-23T01:12:56.891Z,20.83
2018-09-23T01:17:00.097Z,25.23
2018-09-23T01:21:02.999Z,24.43
2018-09-23T01:25:05.863Z,22.50
2018-09-23T01:29:08.983Z,22.27
2018-09-23T01:33:12.067Z,22.80
2018-09-23T01:37:15.101Z,23.90
2018-09-23T01:41:18.012Z,26.93
2018-09-23T01:45:21.156Z,25.50
2018-09-23T01:49:24.027Z,27.40
2018-09-23T01:53:27.176Z,25.77
2018-09-23T01:57:30.042Z,23.43
2018-09-23T02:01:33.039Z,25.60
2018-09-23T02:05:36.124Z,26.33
2018-09-23T02:09:39.114Z,25.83
2018-09-23T02:13:41.982Z,27.10
2018-09-23T02:17:45.038Z,24.87
2018-09-23T02:21:48.140Z,24.37
2018-09-23T02:25:51.055Z,25.63
2018-09-23T02:29:53.931Z,24.53
2018-09-23T02:33:57.065Z,26.40
2018-09-23T02:37:59.939Z,25.13
2018-09-23T02:42:02.849Z,24.07
2018-09-23T02:46:06.073Z,25.67
2018-09-23T02:50:08.991Z,25.37
2018-09-23T02:54:11.866Z,27.57
2018-09-23T02:58:15.144Z,27.87
2018-09-23T03:02:18.248Z,27.63
2018-09-23T03:06:21.145Z,25.20
2018-09-23T03:10:24.019Z,26.23
2018-09-23T03:14:27.160Z,28.13
2018-09-23T03:18:30.154Z,26.23
2018-09-23T03:22:33.279Z,26.50
2018-09-23T03:26:36.139Z,28.10
2018-09-23T03:30:39.182Z,29.80
2018-09-23T03:34:42.251Z,30.90
2018-09-23T03:38:45.171Z,33.37
2018-09-23T03:42:48.043Z,30.43
2018-09-23T03:46:50.976Z,33.80
2018-09-23T03:50:53.836Z,31.73
2018-09-23T03:54:56.967Z,33.27
2018-09-23T03:58:59.848Z,32.60
2018-09-23T04:03:02.996Z,32.53
2018-09-23T04:07:05.868Z,30.10
2018-09-23T04:11:08.803Z,30.87
2018-09-23T04:15:11.680Z,31.60
2018-09-23T04:19:14.707Z,30.17
2018-09-23T04:23:17.571Z,33.97
2018-09-23T04:27:20.486Z,32.57
2018-09-23T04:31:23.363Z,31.40
2018-09-23T04:35:26.279Z,32.00
2018-09-23T04:39:29.144Z,34.80
2018-09-23T04:43:32.063Z,33.80
2018-09-23T04:47:34.933Z,32.60
2018-09-23T04:51:38.051Z,32.47
2018-09-23T04:55:40.915Z,30.00
2018-09-23T04:59:44.040Z,30.27
2018-09-23T05:03:46.989Z,32.00
2018-09-23T05:07:49.972Z,31.93
2018-09-23T05:11:52.835Z,29.83
2018-09-23T05:15:55.763Z,30.60
2018-09-23T05:19:58.960Z,29.00
2018-09-23T05:24:02.012Z,32.20
2018-09-23T05:28:05.111Z,34.17
2018-09-23T05:32:08.039Z,32.03
2018-09-23T05:36:11.103Z,30.60
2018-09-23T05:40:14.241Z,31.50
2018-09-23T05:44:17.116Z,28.53
2018-09-23T05:48:20.075Z,31.53
2018-09-23T05:52:22.940Z,30.10
2018-09-23T05:56:26.159Z,32.70
2018-09-23T06:00:31.503Z,28.30
2018-09-23T06:04:34.645Z,29.73
2018-09-23T06:08:37.522Z,30.07
2018-09-23T06:12:40.656Z,33.50
2018-09-23T06:16:43.727Z,34.23
2018-09-23T06:20:46.763Z,32.93
2018-09-23T06:24:49.851Z,31.73
2018-09-23T06:28:52.772Z,31.40
2018-09-23T06:32:55.639Z,31.87
2018-09-23T06:36:58.773Z,31.53
2018-09-23T06:41:02.083Z,30.93
2018-09-23T06:45:04.975Z,30.10
2018-09-23T06:49:07.883Z,31.10
2018-09-23T06:53:11.159Z,28.10
2018-09-23T06:57:14.154Z,30.20
2018-09-23T07:01:17.007Z,32.70
2018-09-23T07:05:20.082Z,31.73
2018-09-23T07:09:22.992Z,32.00
2018-09-23T07:13:26.175Z,31.07
2018-09-23T07:17:29.058Z,29.67
2018-09-23T07:21:31.975Z,29.20
2018-09-23T07:25:34.841Z,27.57
2018-09-23T07:29:37.779Z,31.67
2018-09-23T07:33:40.634Z,30.00
2018-09-23T07:37:43.607Z,31.13
2018-09-23T07:41:46.704Z,31.87
2018-09-23T07:45:49.711Z,34.00
2018-09-23T07:49:53.011Z,33.73
2018-09-23T07:53:56.109Z,34.03
2018-09-23T07:57:59.026Z,35.90
2018-09-23T08:02:02.027Z,35.80
2018-09-23T08:06:04.891Z,39.83
2018-09-23T08:10:08.051Z,36.90
2018-09-23T08:14:11.266Z,35.53
2018-09-23T08:18:13.915Z,36.33
2018-09-23T08:22:17.897Z,36.63
2018-09-23T08:26:21.214Z,33.73
2018-09-23T08:30:24.048Z,31.97
2018-09-23T08:34:26.942Z,33.97
2018-09-23T08:38:30.026Z,36.33
2018-09-23T08:42:33.091Z,35.07
2018-09-23T08:46:35.947Z,33.77
2018-09-23T08:50:38.884Z,34.77
2018-09-23T08:54:41.952Z,35.50
2018-09-23T08:58:44.860Z,40.50
2018-09-23T09:02:47.716Z,39.13
2018-09-23T09:06:50.852Z,37.40
2018-09-23T09:10:53.727Z,37.90
2018-09-23T09:14:56.664Z,37.63
2018-09-23T09:18:59.756Z,41.30
2018-09-23T09:23:02.666Z,40.40
2018-09-23T09:27:05.694Z,40.37
2018-09-23T09:31:08.561Z,41.50
2018-09-23T09:35:11.634Z,40.90
2018-09-23T09:39:14.551Z,43.00
2018-09-23T09:43:17.627Z,40.07
2018-09-23T09:47:20.535Z,41.53
2018-09-23T09:51:23.391Z,38.17
2018-09-23T09:55:26.331Z,40.47
2018-09-23T09:59:29.187Z,45.80
2018-09-23T10:03:32.104Z,43.40
2018-09-23T10:07:34.964Z,46.03
2018-09-23T10:11:38.054Z,47.27
2018-09-23T10:15:40.835Z,44.37
2018-09-23T10:19:43.964Z,44.07
2018-09-23T10:23:46.868Z,41.07
2018-09-23T10:27:49.818Z,41.27
2018-09-23T10:31:52.925Z,39.80
2018-09-23T10:35:55.867Z,42.33
2018-09-23T10:39:58.945Z,43.30
2018-09-23T10:44:02.434Z,38.27
2018-09-23T10:48:05.511Z,35.73
2018-09-23T10:52:08.567Z,33.97
2018-09-23T10:56:11.711Z,33.47
2018-09-23T11:00:14.579Z,32.33
2018-09-23T11:04:18.060Z,30.90
2018-09-23T11:08:20.866Z,32.27
2018-09-23T11:12:23.804Z,34.17
2018-09-23T11:16:26.900Z,33.93
2018-09-23T11:20:29.821Z,31.70
2018-09-23T11:24:33.111Z,30.23
2018-09-23T11:28:36.229Z,32.07
2018-09-23T11:32:39.125Z,27.27
2018-09-23T11:36:42.441Z,26.00
2018-09-23T11:40:45.857Z,27.40
2018-09-23T11:44:48.933Z,25.57
2018-09-23T11:48:52.141Z,24.20
2018-09-23T11:52:55.279Z,25.90
2018-09-23T11:56:58.355Z,24.40
2018-09-23T12:01:01.384Z,24.80
2018-09-23T12:05:04.486Z,23.57
2018-09-23T12:09:08.816Z,25.03
2018-09-23T12:13:11.888Z,26.33
2018-09-23T12:17:14.861Z,23.93
2018-09-23T12:21:18.033Z,20.33
2018-09-23T12:25:21.160Z,20.87
2018-09-23T12:29:23.955Z,18.03
2018-09-23T12:33:26.886Z,16.40
2018-09-23T12:37:29.979Z,15.37
2018-09-23T12:41:33.165Z,12.73
2018-09-23T12:45:36.468Z,10.80
2018-09-23T12:49:39.332Z,10.40
2018-09-23T12:53:42.244Z,6.00
2018-09-23T12:57:45.560Z,3.37
2018-09-23T13:01:48.415Z,4.00
2018-09-23T13:05:53.031Z,4.43
2018-09-23T13:09:55.890Z,3.87
2018-09-23T13:13:58.775Z,3.83
2018-09-23T13:18:01.896Z,3.60
2018-09-23T13:22:04.999Z,3.67
2018-09-23T13:26:08.278Z,2.73
2018-09-23T13:30:11.221Z,2.70
2018-09-23T13:34:14.291Z,3.63
2018-09-23T13:38:17.479Z,2.53
2018-09-23T13:42:20.562Z,2.83
2018-09-23T13:46:23.866Z,2.60
2018-09-23T13:50:26.967Z,3.33
2018-09-23T13:54:30.167Z,3.37
2018-09-23T13:58:33.239Z,3.90
2018-09-23T14:02:37.096Z,3.00
2018-09-23T14:06:40.179Z,2.50
2018-09-23T14:10:43.095Z,2.97
2018-09-23T14:14:45.964Z,3.37
2018-09-23T14:18:49.101Z,3.60
2018-09-23T14:22:51.995Z,3.63
2018-09-23T14:26:54.907Z,3.73
2018-09-23T14:30:57.984Z,5.50
2018-09-23T14:35:00.911Z,3.90
2018-09-23T14:39:04.333Z,3.37
2018-09-23T14:43:07.240Z,2.93
2018-09-23T14:47:10.334Z,3.40
2018-09-23T14:51:13.398Z,3.30
2018-09-23T14:55:17.079Z,3.70
2018-09-23T14:59:19.947Z,3.53
2018-09-23T15:03:23.335Z,3.10
2018-09-23T15:07:26.188Z,3.50
2018-09-23T15:11:29.276Z,3.47
2018-09-23T15:15:32.289Z,3.10
2018-09-23T15:19:35.975Z,2.83
2018-09-23T15:23:38.815Z,3.17
2018-09-23T15:27:42.088Z,3.57
2018-09-23T15:31:44.968Z,3.60
2018-09-23T15:35:48.268Z,3.20
2018-09-23T15:39:51.147Z,3.40
2018-09-23T15:43:54.232Z,3.00
2018-09-23T15:47:57.648Z,2.10
2018-09-23T15:52:00.755Z,2.77
2018-09-23T15:56:03.867Z,2.87
2018-09-23T16:00:07.205Z,2.47
2018-09-23T16:04:10.350Z,3.00
2018-09-23T16:08:13.669Z,3.80
2018-09-23T16:12:16.547Z,3.83
2018-09-23T16:16:19.690Z,3.07
2018-09-23T16:20:22.806Z,3.13
2018-09-23T16:24:25.908Z,3.20
2018-09-23T16:28:29.115Z,3.47
2018-09-23T16:32:32.033Z,3.37
2018-09-23T16:36:34.898Z,4.77
2018-09-23T16:40:37.803Z,5.60
2018-09-23T16:44:40.700Z,5.07
2018-09-23T16:48:43.616Z,4.80
2018-09-23T16:52:46.486Z,4.67
2018-09-23T16:56:49.633Z,4.30
2018-09-23T17:00:52.500Z,5.00
2018-09-23T17:04:55.444Z,4.20
2018-09-23T17:08:58.727Z,4.57
2018-09-23T17:13:01.594Z,5.27
2018-09-23T17:17:04.517Z,5.20
2018-09-23T17:21:07.592Z,4.87
2018-09-23T17:25:10.521Z,5.00
2018-09-23T17:29:13.628Z,4.47
2018-09-23T17:33:16.491Z,3.30
2018-09-23T17:37:19.649Z,3.70
2018-09-23T17:41:22.497Z,3.43
2018-09-23T17:45:25.410Z,2.73
2018-09-23T17:49:28.501Z,2.70
2018-09-23T17:53:31.433Z,2.90
2018-09-23T17:57:34.519Z,2.70
2018-09-23T18:01:37.375Z,2.50
2018-09-23T18:05:40.437Z,2.40
2018-09-23T18:09:43.278Z,2.40
2018-09-23T18:13:46.384Z,2.57
2018-09-23T18:17:49.472Z,2.37
2018-09-23T18:21:52.396Z,3.60
2018-09-23T18:25:55.480Z,3.53
2018-09-23T18:29:58.719Z,3.00
2018-09-23T18:34:02.777Z,3.20
2018-09-23T18:38:05.704Z,2.07
2018-09-23T18:42:09.023Z,2.27
2018-09-23T18:46:11.943Z,1.80
2018-09-23T18:50:14.811Z,1.40
2018-09-23T18:54:23.420Z,2.13
2018-09-23T18:58:26.507Z,1.40
2018-09-23T19:02:30.021Z,1.83
2018-09-23T19:06:33.146Z,2.10
2018-09-23T19:10:36.443Z,1.67
2018-09-23T19:14:39.524Z,1.93
2018-09-23T19:18:42.798Z,2.00
2018-09-23T19:22:51.275Z,2.10
2018-09-23T19:26:54.387Z,2.53
2018-09-23T19:30:57.435Z,2.20
2018-09-23T19:35:00.652Z,2.50
2018-09-23T19:39:06.213Z,2.60
2018-09-23T19:43:09.075Z,1.93
2018-09-23T19:47:11.991Z,3.20
2018-09-23T19:51:14.882Z,2.70
2018-09-23T19:55:18.032Z,2.73
2018-09-23T19:59:20.893Z,3.10
2018-09-23T20:03:24.039Z,4.20
2018-09-23T20:07:27.132Z,2.77
2018-09-23T20:11:30.044Z,4.27
2018-09-23T20:15:33.171Z,4.00
2018-09-23T20:19:36.019Z,4.63
2018-09-23T20:23:38.919Z,2.60
2018-09-23T20:27:41.886Z,2.20
2018-09-23T20:31:44.750Z,2.57
2018-09-23T20:35:47.917Z,2.37
2018-09-23T20:39:50.920Z,2.50
2018-09-23T20:43:54.058Z,3.17
2018-09-23T20:47:56.931Z,2.57
2018-09-23T20:51:59.835Z,2.67
2018-09-23T20:56:02.916Z,1.60
2018-09-23T21:00:05.992Z,1.93
2018-09-23T21:04:08.863Z,1.50
2018-09-23T21:08:12.019Z,1.80
2018-09-23T21:12:15.103Z,2.10
2018-09-23T21:16:18.014Z,1.40
2018-09-23T21:20:20.891Z,1.70
2018-09-23T21:24:23.815Z,1.40
2018-09-23T21:28:26.681Z,1.57
2018-09-23T21:32:29.595Z,1.90
2018-09-23T21:36:32.730Z,2.27
2018-09-23T21:40:35.639Z,2.30
2018-09-23T21:44:38.495Z,2.33
2018-09-23T21:48:41.631Z,2.03
2018-09-23T21:52:44.491Z,2.40
2018-09-23T21:56:47.639Z,2.33
2018-09-23T22:00:51.644Z,2.37
2018-09-23T22:04:54.548Z,3.00
2018-09-23T22:08:57.655Z,2.00
2018-09-23T22:13:00.788Z,2.80
2018-09-23T22:17:03.652Z,2.00
2018-09-23T22:21:06.791Z,2.47
2018-09-23T22:25:09.654Z,2.17
2018-09-23T22:29:12.563Z,3.20
2018-09-23T22:33:15.647Z,3.30
2018-09-23T22:37:18.785Z,2.40
2018-09-23T22:41:21.643Z,2.80
2018-09-23T22:45:24.549Z,4.00
2018-09-23T22:49:27.616Z,2.37
2018-09-23T22:53:30.526Z,2.03
2018-09-23T22:57:33.399Z,1.50
2018-09-23T23:01:36.652Z,2.53
2018-09-23T23:05:39.576Z,2.70
2018-09-23T23:09:42.495Z,2.40
2018-09-23T23:13:45.572Z,1.93
2018-09-23T23:17:48.719Z,2.20
2018-09-23T23:21:51.583Z,3.53
2018-09-23T23:25:54.542Z,1.50
2018-09-23T23:29:57.639Z,1.70
2018-09-23T23:34:00.549Z,1.53
2018-09-23T23:38:03.636Z,1.40
2018-09-23T23:42:06.775Z,2.00
2018-09-23T23:46:09.727Z,2.60
2018-09-23T23:50:12.869Z,2.00
2018-09-23T23:54:15.723Z,1.63
2018-09-23T23:58:18.635Z,2.03
